Mobile Regional Airport
KMOB : now visible

Airfield :











YOU CAN JOIN US ON...

 
LOGIN :

Register | Disclaimer

   EN    FR    IT 

 









Legend :    VFR   Marginal VFR   IFR   Intensive IFR   Very Intensive IFR
Visi :
Ceiling :
>= 8 km
>= 3000ft
5 to 8 km
1000 to 3000 ft
1500m to 5 km
500 to 1000 ft
800 to 1500m
200 to 500 ft
< 800m
< 200 ft
Symbols :   Thunderstorms  Fog  Heavy snow  Heavy precipitations  Wind > 20 kt







- Airport Elevation : 219 ft
- IATA code : MOB


KMOB - Mobile Regional

CURRENT METAR :
  • 212056Z 12010KT 10SM SCT055 OVC070 30/19 A3014 RMK AO2 SLP201 T03000194 56016

EXPIRED METARs :
  • 211956Z 14010G16KT 10SM FEW050 SCT070 31/20 A3014 RMK AO2 SLP204 T03110200
  • 211856Z 12012KT 10SM SCT037 BKN060 BKN095 30/20 A3017 RMK AO2 SLP212 T03000200

TAF KMOB
Valid from the 21 at 20:00 until the 22 at 18:00 UTC


212006Z 2120/2218 14012KT P6SM SCT050 SCT070
FM220100 13006KT P6SM FEW050 FEW250
FM221200 07006KT P6SM SCT030 SCT250
No reported NOTAMs for that airfield.



MET'MAP, your aeronautical weather chart ! - Copyright ORBIFLY December 2007 - Disclaimer

ORBIFLY MET'MAP TEAM :

Programming & Development : Alexandra Zaïnal
Concept & Development : Baudouin d'Aumeries
Co-Development & Prog : Marc-Olivier Méhu
Technical & hardware support : Manuel Goepfert

Contact : metmap@orbifly.com




SOURCES & CREDITS :

   NOAA       Earth
Advisory